createdAt,value
2023-02-14T05:44:01.433Z,0.1
2023-02-14T05:45:01.106Z,0.1
2023-02-14T05:46:02.242Z,0.2
2023-02-14T05:47:01.102Z,0.3
2023-02-14T05:49:01.306Z,0.4
2023-02-14T05:50:01.171Z,0.5
2023-02-14T05:52:06.102Z,0.6
2023-02-14T05:53:01.172Z,0.7
2023-02-14T05:54:01.308Z,0.8
2023-02-14T05:55:01.115Z,0.9
2023-02-14T05:56:01.117Z,1.1
2023-02-14T05:57:01.107Z,1.2
2023-02-14T05:58:01.185Z,1.3
2023-02-14T05:59:02.475Z,1.5
2023-02-14T06:00:01.145Z,1.6
2023-02-14T06:01:03.162Z,1.8
2023-02-14T06:02:01.427Z,2.0
2023-02-14T06:03:01.108Z,2.2
2023-02-14T06:04:01.629Z,2.5
2023-02-14T06:05:01.128Z,2.7
2023-02-14T06:06:01.125Z,3.2
2023-02-14T06:07:01.133Z,3.7
2023-02-14T06:08:01.108Z,4.1
2023-02-14T06:09:01.311Z,4.7
2023-02-14T06:10:01.110Z,5.3
2023-02-14T06:11:01.528Z,6.3
2023-02-14T06:12:01.108Z,7.2
2023-02-14T06:13:01.107Z,8.1
2023-02-14T06:14:02.217Z,9.7
2023-02-14T06:15:06.144Z,11.2
2023-02-14T06:16:02.126Z,13.7
2023-02-14T06:17:01.167Z,16.1
2023-02-14T06:18:01.139Z,18.6
2023-02-14T06:19:01.340Z,22.1
2023-02-14T06:20:01.143Z,25.5
2023-02-14T06:21:01.527Z,30.3
2023-02-14T06:22:01.466Z,35.1
2023-02-14T06:23:01.119Z,39.9
2023-02-14T06:24:01.509Z,46.5
2023-02-14T06:25:01.117Z,53.0
2023-02-14T06:26:02.011Z,61.9
2023-02-14T06:27:01.118Z,70.7
2023-02-14T06:28:02.154Z,79.6
2023-02-14T06:29:01.324Z,91.7
2023-02-14T06:30:05.852Z,103.7
2023-02-14T06:31:01.830Z,118.6
2023-02-14T06:32:01.203Z,133.5
2023-02-14T06:33:01.117Z,148.3
2023-02-14T06:34:01.979Z,166.7
2023-02-14T06:36:01.137Z,189.8
2023-02-14T06:37:01.101Z,211.4
2023-02-14T06:38:01.112Z,233.0
2023-02-14T06:39:01.095Z,259.8
2023-02-14T06:40:01.299Z,284.7
2023-02-14T06:41:03.856Z,316.8
2023-02-14T06:42:01.109Z,346.3
2023-02-14T06:43:01.116Z,375.7
2023-02-14T06:44:01.104Z,415.7
2023-02-14T06:45:02.119Z,451.7
2023-02-14T06:46:02.323Z,497.6
2023-02-14T06:47:02.219Z,539.7
2023-02-14T06:48:01.237Z,581.7
2023-02-14T06:49:01.104Z,637.7
2023-02-14T06:50:01.839Z,689.2
2023-02-14T06:51:03.104Z,751.1
2023-02-14T06:52:01.103Z,812.9
2023-02-14T06:53:01.102Z,874.8
2023-02-14T06:54:02.132Z,947.2
2023-02-14T06:55:01.377Z,1019.6
2023-02-14T06:56:01.114Z,1104.8
2023-02-14T06:57:01.130Z,1190.0
2023-02-14T06:58:01.104Z,1275.2
2023-02-14T06:59:01.120Z,1374.3
2023-02-14T07:00:04.078Z,1473.3
2023-02-14T07:01:01.521Z,1589.5
2023-02-14T07:02:01.109Z,1705.6
2023-02-14T07:03:01.228Z,1821.7
2023-02-14T07:04:01.112Z,1966.7
2023-02-14T07:05:16.123Z,2111.6
2023-02-14T07:06:01.929Z,2260.9
2023-02-14T07:07:01.113Z,2410.1
2023-02-14T07:08:02.153Z,2559.4
2023-02-14T07:09:01.102Z,2731.4
2023-02-14T07:10:01.139Z,2903.4
2023-02-14T07:11:03.556Z,3105.5
2023-02-14T07:12:01.106Z,3307.7
2023-02-14T07:13:01.113Z,3509.8
2023-02-14T07:14:01.116Z,3751.5
2023-02-14T07:15:01.111Z,3993.3
2023-02-14T07:16:02.774Z,4208.1
2023-02-14T07:17:01.104Z,4484.6
2023-02-14T07:18:01.107Z,4761.1
2023-02-14T07:19:01.129Z,5035.6
2023-02-14T07:20:01.129Z,5310.1
2023-02-14T07:21:01.632Z,5565.1
2023-02-14T07:22:01.113Z,5859.7
2023-02-14T07:23:01.107Z,6154.3
2023-02-14T07:24:01.179Z,6454.4
2023-02-14T07:25:01.133Z,6754.5
2023-02-14T07:26:03.227Z,7011.1
2023-02-14T07:27:01.132Z,7267.8
2023-02-14T07:28:01.118Z,7524.5
2023-02-14T07:29:01.124Z,7763.4
2023-02-14T07:30:02.222Z,8002.3
2023-02-14T07:31:02.514Z,8241.3
2023-02-14T07:32:01.255Z,8494.0
2023-02-14T07:33:01.111Z,8746.7
2023-02-14T07:34:01.199Z,9011.3
2023-02-14T07:35:01.143Z,9275.8
2023-02-14T07:36:03.256Z,9540.3
2023-02-14T07:37:01.129Z,9865.7
2023-02-14T07:38:01.114Z,10191.1
2023-02-14T07:39:01.393Z,10555.4
2023-02-14T07:40:01.124Z,10919.7
2023-02-14T07:41:02.796Z,11307.0
2023-02-14T07:42:01.119Z,11694.3
2023-02-14T07:43:01.126Z,12081.7
2023-02-14T07:44:01.113Z,12499.4
2023-02-14T07:45:06.944Z,12917.1
2023-02-14T07:46:01.382Z,13334.9
2023-02-14T07:47:01.225Z,13808.7
2023-02-14T07:48:01.110Z,14282.5
2023-02-14T07:49:01.115Z,14690.5
2023-02-14T07:50:01.113Z,15098.5
2023-02-14T07:51:04.283Z,15552.1
2023-02-14T07:52:01.120Z,15905.2
2023-02-14T07:53:01.111Z,16258.3
2023-02-14T07:54:01.394Z,16531.7
2023-02-14T07:55:01.112Z,16805.1
2023-02-14T07:56:02.419Z,17048.7
2023-02-14T07:57:01.114Z,17474.1
2023-02-14T07:58:01.112Z,17899.6
2023-02-14T07:59:01.123Z,18354.3
2023-02-14T08:00:01.125Z,18809.1
2023-02-14T08:01:01.606Z,19263.8
2023-02-14T08:03:01.231Z,19514.1
2023-02-14T08:04:01.100Z,19847.6
2023-02-14T08:05:01.217Z,20194.3
2023-02-14T08:06:01.120Z,20540.9
2023-02-14T08:07:03.182Z,20782.4
2023-02-14T08:08:01.105Z,21023.9
2023-02-14T08:09:01.111Z,21245.3
2023-02-14T08:10:01.105Z,21463.7
2023-02-14T08:11:02.390Z,21682.1
2023-02-14T08:12:01.292Z,21988.8
2023-02-14T08:13:01.121Z,22113.5
2023-02-14T08:14:01.261Z,22119.2
2023-02-14T08:15:01.109Z,22019.0
2023-02-14T08:16:01.135Z,21918.8
2023-02-14T08:17:07.204Z,21911.1
2023-02-14T08:18:01.104Z,21976.3
2023-02-14T08:19:01.104Z,22109.1
2023-02-14T08:20:01.121Z,22241.9
2023-02-14T08:21:01.495Z,22374.7
2023-02-14T08:22:02.842Z,22647.2
2023-02-14T08:23:01.147Z,22919.7
2023-02-14T08:24:01.120Z,23220.0
2023-02-14T08:25:01.390Z,23520.3
2023-02-14T08:26:01.108Z,23820.5
2023-02-14T08:27:02.328Z,23566.9
2023-02-14T08:28:01.108Z,23313.3
2023-02-14T08:29:01.113Z,23630.6
2023-02-14T08:30:01.186Z,23947.9
2023-02-14T08:31:01.522Z,24265.1
2023-02-14T08:32:03.649Z,24391.7
2023-02-14T08:33:01.127Z,24518.2
2023-02-14T08:34:01.108Z,24665.5
2023-02-14T08:35:01.279Z,24812.9
2023-02-14T08:36:01.111Z,24960.2
2023-02-14T08:37:01.321Z,25001.8
2023-02-14T08:38:01.105Z,25043.4
2023-02-14T08:39:01.155Z,24783.8
2023-02-14T08:40:01.140Z,24524.2
2023-02-14T08:41:08.689Z,24264.6
2023-02-14T08:42:07.161Z,25154.9
2023-02-14T08:44:01.220Z,26002.3
2023-02-14T08:45:01.109Z,26397.9
2023-02-14T08:46:02.564Z,26793.5
2023-02-14T08:47:01.153Z,27057.3
2023-02-14T08:48:02.781Z,27419.4
2023-02-14T08:49:01.197Z,28153.2
2023-02-14T08:50:01.097Z,28715.5
2023-02-14T08:51:01.321Z,29277.7
2023-02-14T08:52:01.106Z,29294.7
2023-02-14T08:53:02.374Z,29337.3
2023-02-14T08:54:01.092Z,29873.5
2023-02-14T08:55:01.121Z,30703.2
2023-02-14T08:56:01.437Z,31532.9
2023-02-14T08:57:01.105Z,32498.6
2023-02-14T08:58:02.252Z,32780.0
2023-02-14T08:59:01.118Z,33195.2
2023-02-14T09:00:01.169Z,33610.4
2023-02-14T09:01:01.580Z,34025.6
2023-02-14T09:02:01.129Z,34536.8
2023-02-14T09:03:01.773Z,35048.0
2023-02-14T09:04:01.170Z,35218.0
2023-02-14T09:05:01.114Z,35388.0
2023-02-14T09:06:01.109Z,35558.0
2023-02-14T09:07:01.121Z,36362.2
2023-02-14T09:08:02.539Z,37166.4
2023-02-14T09:09:02.524Z,37514.2
2023-02-14T09:10:05.879Z,37862.0
2023-02-14T09:11:01.336Z,38209.8
2023-02-14T09:12:01.099Z,38449.4
2023-02-14T09:13:01.704Z,38689.0
2023-02-14T09:14:01.130Z,38978.0
2023-02-14T09:15:01.100Z,39267.0
2023-02-14T09:16:02.326Z,39556.0
2023-02-14T09:17:01.147Z,40029.7
2023-02-14T09:18:02.246Z,40503.5
2023-02-14T09:19:01.120Z,40995.0
2023-02-14T09:20:01.113Z,41486.5
2023-02-14T09:21:01.553Z,41978.1
2023-02-14T09:22:01.140Z,42458.1
2023-02-14T09:23:01.324Z,42938.2
2023-02-14T09:24:01.120Z,43578.6
2023-02-14T09:25:01.119Z,44219.0
2023-02-14T09:26:01.168Z,44859.4
2023-02-14T09:27:01.106Z,45485.7
2023-02-14T09:28:01.310Z,46111.9
2023-02-14T09:29:01.106Z,46660.1
2023-02-14T09:30:01.269Z,47208.3
2023-02-14T09:31:01.425Z,47756.5
2023-02-14T09:32:01.206Z,48181.9
2023-02-14T09:33:01.936Z,48607.2
2023-02-14T09:34:01.118Z,49081.4
2023-02-14T09:35:01.111Z,49555.6
2023-02-14T09:36:01.603Z,50029.8
2023-02-14T09:37:01.176Z,50428.8
2023-02-14T09:38:16.948Z,50827.8
2023-02-14T09:39:01.111Z,51149.3
2023-02-14T09:40:01.122Z,51470.9
2023-02-14T09:41:01.481Z,51792.4
2023-02-14T09:42:01.130Z,52101.3
2023-02-14T09:43:06.380Z,52410.3
2023-02-14T09:44:01.102Z,52662.9
2023-02-14T09:45:01.108Z,52915.5
2023-02-14T09:46:01.426Z,53168.1
2023-02-14T09:47:01.109Z,53492.0
2023-02-14T09:48:02.160Z,53815.9
2023-02-14T09:49:01.232Z,54088.5
2023-02-14T09:50:01.280Z,54361.0
2023-02-14T09:51:01.670Z,54633.5
2023-02-14T09:52:01.102Z,54975.2
2023-02-14T09:53:06.935Z,55316.9
2023-02-14T09:54:01.258Z,55605.3
2023-02-14T09:55:01.136Z,55893.7
2023-02-14T09:56:01.136Z,56182.1
2023-02-14T09:57:01.113Z,56727.9
2023-02-14T09:58:01.986Z,57273.7
2023-02-14T09:59:01.111Z,57890.6
2023-02-14T10:00:01.179Z,58507.5
2023-02-14T10:01:01.527Z,59124.5
2023-02-14T10:02:01.186Z,59776.3
2023-02-14T10:03:02.225Z,60428.2
2023-02-14T10:04:01.111Z,61034.3
2023-02-14T10:05:06.110Z,61640.3
2023-02-14T10:06:01.415Z,62246.4
2023-02-14T10:07:01.109Z,62781.1
2023-02-14T10:08:01.930Z,63315.7
2023-02-14T10:09:01.123Z,63783.6
2023-02-14T10:10:01.118Z,64251.5
2023-02-14T10:11:01.440Z,64719.3
2023-02-14T10:12:01.105Z,64928.7
2023-02-14T10:13:01.334Z,65138.0
2023-02-14T10:14:01.148Z,65270.3
2023-02-14T10:15:01.120Z,65402.7
2023-02-14T10:16:01.262Z,65535.0
2023-02-14T10:30:01.166Z,65535.0
2023-02-14T10:45:01.110Z,65535.0
2023-02-14T11:00:01.172Z,65535.0
2023-02-14T11:15:01.967Z,65535.0
2023-02-14T11:30:01.642Z,65535.0
2023-02-14T11:45:01.216Z,65535.0
2023-02-14T12:00:01.190Z,65535.0
2023-02-14T12:15:01.150Z,65535.0
2023-02-14T12:30:01.836Z,65535.0
2023-02-14T12:45:01.410Z,65535.0
2023-02-14T13:00:01.136Z,65535.0
2023-02-14T13:15:01.110Z,65535.0
2023-02-14T13:30:01.504Z,65535.0
2023-02-14T13:45:01.192Z,65535.0
2023-02-14T14:00:03.081Z,65535.0
2023-02-14T14:15:01.372Z,65535.0
2023-02-14T14:29:02.044Z,65309.8
2023-02-14T14:30:01.176Z,65084.6
2023-02-14T14:31:01.146Z,64859.4
2023-02-14T14:44:01.467Z,64960.1
2023-02-14T14:45:01.135Z,65060.7
2023-02-14T14:46:01.422Z,65161.4
2023-02-14T14:47:01.151Z,64941.3
2023-02-14T14:48:02.697Z,64721.1
2023-02-14T14:49:01.320Z,64458.7
2023-02-14T14:50:01.116Z,64196.3
2023-02-14T14:51:01.112Z,63933.9
2023-02-14T14:52:01.148Z,63251.3
2023-02-14T14:54:01.432Z,62500.5
2023-02-14T14:55:01.100Z,61749.7
2023-02-14T14:56:01.412Z,60998.9
2023-02-14T14:57:01.133Z,60443.4
2023-02-14T14:58:01.114Z,59887.9
2023-02-14T14:59:01.441Z,59584.9
2023-02-14T15:00:01.113Z,59406.4
2023-02-14T15:01:01.207Z,59227.9
2023-02-14T15:02:01.135Z,59170.9
2023-02-14T15:03:02.108Z,59209.5
2023-02-14T15:04:01.330Z,58994.4
2023-02-14T15:05:01.105Z,58821.5
2023-02-14T15:06:01.417Z,58648.7
2023-02-14T15:07:01.272Z,58272.2
2023-02-14T15:08:01.114Z,58315.9
2023-02-14T15:09:01.310Z,58334.7
2023-02-14T15:10:01.112Z,58353.4
2023-02-14T15:11:01.320Z,58372.1
2023-02-14T15:12:01.103Z,58389.1
2023-02-14T15:13:07.029Z,58406.0
2023-02-14T15:14:02.089Z,57736.3
2023-02-14T15:15:01.111Z,57066.5
2023-02-14T15:16:03.555Z,56396.8
2023-02-14T15:17:01.228Z,55224.9
2023-02-14T15:18:01.777Z,54053.1
2023-02-14T15:19:01.698Z,53166.6
2023-02-14T15:20:01.394Z,52280.1
2023-02-14T15:21:02.528Z,51393.7
2023-02-14T15:22:01.391Z,50433.2
2023-02-14T15:23:02.031Z,49472.7
2023-02-14T15:24:01.314Z,48396.3
2023-02-14T15:25:01.112Z,47319.8
2023-02-14T15:26:01.113Z,46243.3
2023-02-14T15:27:01.111Z,44941.9
2023-02-14T15:28:01.952Z,43640.5
2023-02-14T15:29:01.330Z,42538.5
2023-02-14T15:30:01.183Z,41436.4
2023-02-14T15:31:01.398Z,40334.3
2023-02-14T15:32:03.078Z,39507.3
2023-02-14T15:33:01.798Z,38680.2
2023-02-14T15:34:02.225Z,37706.0
2023-02-14T15:35:01.124Z,36731.8
2023-02-14T15:36:01.126Z,35757.6
2023-02-14T15:37:01.128Z,34945.7
2023-02-14T15:38:03.733Z,34133.7
2023-02-14T15:39:02.217Z,33383.7
2023-02-14T15:40:01.116Z,32633.7
2023-02-14T15:41:01.494Z,31883.7
2023-02-14T15:42:01.124Z,31055.7
2023-02-14T15:43:01.745Z,30227.7
2023-02-14T15:44:01.349Z,29513.5
2023-02-14T15:45:01.126Z,28799.2
2023-02-14T15:46:01.266Z,28084.9
2023-02-14T15:47:07.159Z,27361.1
2023-02-14T15:48:03.294Z,26637.2
2023-02-14T15:49:02.966Z,25920.9
2023-02-14T15:50:02.610Z,25204.5
2023-02-14T15:51:01.408Z,24488.2
2023-02-14T15:52:01.119Z,23788.9
2023-02-14T15:53:02.263Z,23089.7
2023-02-14T15:54:01.781Z,22431.1
2023-02-14T15:55:01.256Z,21772.6
2023-02-14T15:56:01.189Z,21114.1
2023-02-14T15:57:01.187Z,20456.3
2023-02-14T15:58:01.850Z,19798.5
2023-02-14T15:59:01.449Z,19170.0
2023-02-14T16:00:01.133Z,18541.5
2023-02-14T16:01:01.503Z,17913.1
2023-02-14T16:02:01.187Z,17314.7
2023-02-14T16:03:07.321Z,16716.4
2023-02-14T16:04:02.351Z,16134.7
2023-02-14T16:05:01.156Z,15553.1
2023-02-14T16:06:01.113Z,14971.4
2023-02-14T16:07:01.174Z,14408.5
2023-02-14T16:08:02.096Z,13845.7
2023-02-14T16:09:01.458Z,13314.2
2023-02-14T16:10:01.115Z,12782.7
2023-02-14T16:11:01.406Z,12251.3
2023-02-14T16:12:01.118Z,11755.1
2023-02-14T16:14:01.301Z,11192.6
2023-02-14T16:15:01.163Z,10721.9
2023-02-14T16:16:01.177Z,10251.1
2023-02-14T16:17:01.116Z,9715.3
2023-02-14T16:18:08.786Z,9264.7
2023-02-14T16:19:02.005Z,8754.6
2023-02-14T16:20:01.096Z,8335.8
2023-02-14T16:21:01.427Z,7917.0
2023-02-14T16:22:01.103Z,7443.9
2023-02-14T16:23:01.731Z,7050.3
2023-02-14T16:24:01.639Z,6607.9
2023-02-14T16:25:01.371Z,6240.5
2023-02-14T16:26:01.122Z,5873.2
2023-02-14T16:27:01.097Z,5462.5
2023-02-14T16:28:01.717Z,5125.2
2023-02-14T16:29:06.312Z,4815.7
2023-02-14T16:30:01.180Z,4506.1
2023-02-14T16:31:01.564Z,4196.6
2023-02-14T16:32:15.020Z,3917.9
2023-02-14T16:33:01.717Z,3639.3
2023-02-14T16:34:01.311Z,3390.7
2023-02-14T16:35:01.211Z,3142.1
2023-02-14T16:36:02.197Z,2893.5
2023-02-14T16:37:01.191Z,2674.1
2023-02-14T16:38:01.858Z,2454.8
2023-02-14T16:39:06.595Z,2263.7
2023-02-14T16:40:02.129Z,2072.5
2023-02-14T16:41:01.409Z,1881.4
2023-02-14T16:42:01.129Z,1717.1
2023-02-14T16:43:01.761Z,1552.7
2023-02-14T16:44:01.748Z,1413.9
2023-02-14T16:45:01.114Z,1275.1
2023-02-14T16:46:01.117Z,1136.3
2023-02-14T16:47:01.130Z,1021.7
2023-02-14T16:48:01.730Z,907.0
2023-02-14T16:49:01.588Z,814.1
2023-02-14T16:50:01.148Z,721.3
2023-02-14T16:51:01.426Z,628.4
2023-02-14T16:52:01.521Z,555.0
2023-02-14T16:53:01.756Z,481.6
2023-02-14T16:54:06.310Z,425.4
2023-02-14T16:55:01.117Z,369.2
2023-02-14T16:56:01.105Z,313.0
2023-02-14T16:57:01.142Z,271.3
2023-02-14T16:58:01.753Z,229.7
2023-02-14T16:59:01.310Z,199.8
2023-02-14T17:00:01.122Z,169.9
2023-02-14T17:01:01.468Z,140.1
2023-02-14T17:02:01.152Z,119.4
2023-02-14T17:03:02.032Z,98.7
2023-02-14T17:04:01.325Z,85.1
2023-02-14T17:05:01.104Z,71.4
2023-02-14T17:06:01.104Z,57.7
2023-02-14T17:07:01.143Z,49.2
2023-02-14T17:08:03.442Z,40.7
2023-02-14T17:09:01.312Z,35.3
2023-02-14T17:10:01.117Z,30.0
2023-02-14T17:11:01.388Z,24.7
2023-02-14T17:12:01.154Z,21.3
2023-02-14T17:13:01.927Z,17.9
2023-02-14T17:14:01.285Z,15.5
2023-02-14T17:15:01.123Z,13.2
2023-02-14T17:16:01.154Z,10.9
2023-02-14T17:18:02.799Z,9.3
2023-02-14T17:19:01.304Z,7.8
2023-02-14T17:20:01.125Z,6.8
2023-02-14T17:21:01.322Z,5.8
2023-02-14T17:22:01.114Z,4.7
2023-02-14T17:23:01.154Z,4.1
2023-02-14T17:24:02.164Z,3.4
2023-02-14T17:25:01.113Z,3.0
2023-02-14T17:26:01.094Z,2.6
2023-02-14T17:27:01.099Z,2.1
2023-02-14T17:28:02.094Z,1.8
2023-02-14T17:29:01.349Z,1.5
2023-02-14T17:30:01.154Z,1.3
2023-02-14T17:31:01.361Z,1.1
2023-02-14T17:32:01.207Z,0.9
2023-02-14T17:33:01.172Z,0.7
2023-02-14T17:34:01.559Z,0.6
2023-02-14T17:35:01.167Z,0.5
2023-02-14T17:36:01.095Z,0.3
2023-02-14T17:38:01.773Z,0.2
2023-02-14T17:39:01.306Z,0.1
